Bocaiuva do Sul, Brazil
Current Conditions -  °F | °C
As of 10:00 PM on Wednesday 17 Dec 2014 (Local Time) from SBBI Reporting Station
Clear Clear  
Wind Chill: 70°   Ceiling: Unl
Heat Index: 70°   Visibility: 4mi
Dew Point: 63°   Wind: 5mph
Humidity: 78%   Direction: 140°SE
Pressure: 29.94"   Gusts: NA
Location:  25.21°S, 49.11°W
Report Text: SBBI 180000Z 14004KT 7000 NSC 21/17 Q1014
Loading
Personal Weather Stations






























Interactive Weather Map New forecast layout! Learn more

10-Day Weather Forecast

Advertisements
Track Severe Weather on mobile